Chauncey, Ohio
Current Conditions -  °F | °C
As of 12:55 PM on Sunday 21 Dec 2014 (Local Time) from KUNI Reporting Station
Overcast Overcast  
Wind Chill: 36°   Ceiling: 2400
Heat Index: 36°   Visibility: 10mi
Dew Point: 25°   Wind: 0mph
Humidity: 65%   Direction: NA
Pressure: 30.26"   Gusts: NA
Location:  39.4°N, 82.13°W
Report Text: KUNI 211755Z AUTO 00000KT 10SM OVC024 02/M04 A3026 RMK AO2 T00211039 10023 21018
Loading
Personal Weather Stations






























Interactive Weather Map New forecast layout! Learn more

10-Day Weather Forecast

Advertisements
Track Severe Weather on mobile